Terminal Aerodrome Forecast
Issued by NWS

Home | Current Version | Previous Version | Text Only | Print | Product List | Glossary On
Versions: 1 2 3 4 5 6 7 8 9 10 11 12 13 14 15 16 17
957
FTUS44 KMAF 260530
TAFPEQ
TAF
KPEQ 260530Z 2606/2706 12011KT P6SM SCT080 SCT250
      TEMPO 2609/2612 VRB20G40KT 3SM TSRA BKN040CB
     FM261400 06009KT P6SM BKN050 BKN120=

USA.gov is the U.S. government's official web portal to all federal, state and local government web resources and services.